sensor_id;sensor_type;location;lat;lon;timestamp;pressure;altitude;pressure_sealevel;temperature;humidity
71384;BME280;67558;52.166;5.004;2023-05-11T00:01:11;101556.88;;;16.26;66.85
71384;BME280;67558;52.166;5.004;2023-05-11T00:03:36;101550.69;;;16.25;66.86
71384;BME280;67558;52.166;5.004;2023-05-11T00:06:02;101550.41;;;16.27;66.80
71384;BME280;67558;52.166;5.004;2023-05-11T00:08:28;101553.41;;;16.25;66.85
71384;BME280;67558;52.166;5.004;2023-05-11T00:10:53;101552.06;;;16.23;66.93
71384;BME280;67558;52.166;5.004;2023-05-11T00:13:19;101551.50;;;16.26;66.68
71384;BME280;67558;52.166;5.004;2023-05-11T00:15:44;101531.63;;;16.16;66.70
71384;BME280;67558;52.166;5.004;2023-05-11T00:18:10;101543.97;;;16.23;66.90
71384;BME280;67558;52.166;5.004;2023-05-11T00:20:35;101533.47;;;16.21;66.99
71384;BME280;67558;52.166;5.004;2023-05-11T00:23:01;101524.63;;;16.15;66.97
71384;BME280;67558;52.166;5.004;2023-05-11T00:25:26;101517.34;;;16.11;66.88
71384;BME280;67558;52.166;5.004;2023-05-11T00:27:51;101518.41;;;16.15;66.73
71384;BME280;67558;52.166;5.004;2023-05-11T00:30:17;101520.91;;;16.06;66.70
71384;BME280;67558;52.166;5.004;2023-05-11T00:32:43;101535.41;;;16.15;66.64
71384;BME280;67558;52.166;5.004;2023-05-11T00:35:09;101536.31;;;16.06;66.91
71384;BME280;67558;52.166;5.004;2023-05-11T00:37:36;101532.53;;;16.07;66.78
71384;BME280;67558;52.166;5.004;2023-05-11T00:40:02;101532.81;;;16.05;66.87
71384;BME280;67558;52.166;5.004;2023-05-11T00:42:27;101538.25;;;16.00;67.02
71384;BME280;67558;52.166;5.004;2023-05-11T00:44:53;101546.84;;;16.02;66.87
71384;BME280;67558;52.166;5.004;2023-05-11T00:47:19;101542.84;;;16.00;66.93
71384;BME280;67558;52.166;5.004;2023-05-11T00:49:45;101542.03;;;15.99;67.23
71384;BME280;67558;52.166;5.004;2023-05-11T00:52:10;101539.63;;;15.97;66.99
71384;BME280;67558;52.166;5.004;2023-05-11T00:54:36;101541.75;;;16.01;67.13
71384;BME280;67558;52.166;5.004;2023-05-11T00:57:02;101542.56;;;16.01;67.13
71384;BME280;67558;52.166;5.004;2023-05-11T00:59:28;101536.06;;;16.02;67.19
71384;BME280;67558;52.166;5.004;2023-05-11T01:01:54;101538.50;;;16.04;67.09
71384;BME280;67558;52.166;5.004;2023-05-11T01:04:19;101537.69;;;16.03;67.26
71384;BME280;67558;52.166;5.004;2023-05-11T01:10:18;101542.28;;;16.03;67.25
71384;BME280;67558;52.166;5.004;2023-05-11T01:18:18;101534.81;;;15.94;67.28
71384;BME280;67558;52.166;5.004;2023-05-11T01:20:47;101535.34;;;15.91;66.82
71384;BME280;67558;52.166;5.004;2023-05-11T01:31:53;101543.31;;;15.77;67.17
71384;BME280;67558;52.166;5.004;2023-05-11T01:34:22;101543.06;;;15.74;67.32
71384;BME280;67558;52.166;5.004;2023-05-11T01:36:53;101541.72;;;15.71;67.44
71384;BME280;67558;52.166;5.004;2023-05-11T01:39:21;101547.38;;;15.75;67.31
71384;BME280;67558;52.166;5.004;2023-05-11T01:41:51;101543.88;;;15.74;67.49
71384;BME280;67558;52.166;5.004;2023-05-11T01:44:20;101545.75;;;15.74;67.12
71384;BME280;67558;52.166;5.004;2023-05-11T01:46:47;101538.19;;;15.71;67.36
71384;BME280;67558;52.166;5.004;2023-05-11T01:49:15;101537.13;;;15.72;67.52
71384;BME280;67558;52.166;5.004;2023-05-11T01:51:42;101534.47;;;15.67;67.50
71384;BME280;67558;52.166;5.004;2023-05-11T01:54:10;101539.81;;;15.72;67.76
71384;BME280;67558;52.166;5.004;2023-05-11T01:56:39;101546.28;;;15.71;67.56
71384;BME280;67558;52.166;5.004;2023-05-11T01:59:05;101544.44;;;15.71;67.54
71384;BME280;67558;52.166;5.004;2023-05-11T02:01:33;101537.69;;;15.69;67.56
71384;BME280;67558;52.166;5.004;2023-05-11T02:04:01;101540.38;;;15.69;67.64
71384;BME280;67558;52.166;5.004;2023-05-11T02:06:29;101546.84;;;15.68;67.82
71384;BME280;67558;52.166;5.004;2023-05-11T02:08:56;101547.41;;;15.65;67.77
71384;BME280;67558;52.166;5.004;2023-05-11T02:11:25;101553.84;;;15.69;67.74
71384;BME280;67558;52.166;5.004;2023-05-11T02:13:53;101558.72;;;15.67;67.71
71384;BME280;67558;52.166;5.004;2023-05-11T02:16:21;101518.47;;;15.41;67.91
71384;BME280;67558;52.166;5.004;2023-05-11T02:18:48;101552.81;;;15.65;67.79
71384;BME280;67558;52.166;5.004;2023-05-11T02:21:15;101551.22;;;15.59;67.71
71384;BME280;67558;52.166;5.004;2023-05-11T02:23:41;101545.31;;;15.56;67.75
71384;BME280;67558;52.166;5.004;2023-05-11T02:26:08;101560.13;;;15.59;68.03
71384;BME280;67558;52.166;5.004;2023-05-11T02:28:34;101545.63;;;15.50;67.88
71384;BME280;67558;52.166;5.004;2023-05-11T02:31:04;101569.84;;;15.60;67.91
71384;BME280;67558;52.166;5.004;2023-05-11T02:33:34;101563.13;;;15.57;68.14
71384;BME280;67558;52.166;5.004;2023-05-11T02:36:01;101557.47;;;15.54;68.20
71384;BME280;67558;52.166;5.004;2023-05-11T02:38:32;101566.09;;;15.56;68.09
71384;BME280;67558;52.166;5.004;2023-05-11T02:41:01;101557.19;;;15.55;68.05
71384;BME280;67558;52.166;5.004;2023-05-11T02:43:31;101558.25;;;15.54;67.81
71384;BME280;67558;52.166;5.004;2023-05-11T02:46:11;101555.03;;;15.52;67.98
71384;BME280;67558;52.166;5.004;2023-05-11T02:48:41;101558.78;;;15.56;68.11
71384;BME280;67558;52.166;5.004;2023-05-11T02:51:10;101560.16;;;15.54;67.88
71384;BME280;67558;52.166;5.004;2023-05-11T02:53:39;101559.09;;;15.50;67.90
71384;BME280;67558;52.166;5.004;2023-05-11T02:56:05;101557.50;;;15.49;68.21
71384;BME280;67558;52.166;5.004;2023-05-11T02:58:31;101556.16;;;15.46;67.93
71384;BME280;67558;52.166;5.004;2023-05-11T03:00:57;101549.97;;;15.46;68.00
71384;BME280;67558;52.166;5.004;2023-05-11T03:03:23;101543.28;;;15.38;68.05
71384;BME280;67558;52.166;5.004;2023-05-11T03:05:48;101552.44;;;15.37;68.04
71384;BME280;67558;52.166;5.004;2023-05-11T03:08:14;101568.31;;;15.49;68.29
71384;BME280;67558;52.166;5.004;2023-05-11T03:10:40;101556.72;;;15.43;67.96
71384;BME280;67558;52.166;5.004;2023-05-11T03:13:06;101558.84;;;15.46;67.99
71384;BME280;67558;52.166;5.004;2023-05-11T03:15:33;101553.75;;;15.45;68.11
71384;BME280;67558;52.166;5.004;2023-05-11T03:17:59;101557.53;;;15.44;68.20
71384;BME280;67558;52.166;5.004;2023-05-11T03:20:26;101554.59;;;15.40;68.16
71384;BME280;67558;52.166;5.004;2023-05-11T03:22:52;101547.91;;;15.32;67.99
71384;BME280;67558;52.166;5.004;2023-05-11T03:25:18;101555.19;;;15.32;68.13
71384;BME280;67558;52.166;5.004;2023-05-11T03:27:44;101558.94;;;15.36;68.03
71384;BME280;67558;52.166;5.004;2023-05-11T03:30:12;101553.56;;;15.36;68.21
71384;BME280;67558;52.166;5.004;2023-05-11T03:32:39;101553.81;;;15.34;68.37
71384;BME280;67558;52.166;5.004;2023-05-11T03:35:05;101552.19;;;15.33;68.47
71384;BME280;67558;52.166;5.004;2023-05-11T03:37:31;101545.19;;;15.32;68.44
71384;BME280;67558;52.166;5.004;2023-05-11T03:39:58;101546.56;;;15.30;68.23
71384;BME280;67558;52.166;5.004;2023-05-11T03:42:24;101546.03;;;15.28;68.30
71384;BME280;67558;52.166;5.004;2023-05-11T03:44:52;101551.72;;;15.26;68.24
71384;BME280;67558;52.166;5.004;2023-05-11T03:47:20;101535.28;;;15.23;68.43
71384;BME280;67558;52.166;5.004;2023-05-11T03:49:46;101535.25;;;15.28;68.29
71384;BME280;67558;52.166;5.004;2023-05-11T03:52:12;101536.88;;;15.29;68.40
71384;BME280;67558;52.166;5.004;2023-05-11T03:54:38;101515.63;;;15.22;68.26
71384;BME280;67558;52.166;5.004;2023-05-11T03:57:03;101524.50;;;15.23;68.60
71384;BME280;67558;52.166;5.004;2023-05-11T03:59:28;101515.66;;;15.17;68.25
71384;BME280;67558;52.166;5.004;2023-05-11T04:01:54;101528.81;;;15.24;68.52
71384;BME280;67558;52.166;5.004;2023-05-11T04:04:26;101536.09;;;15.23;68.54
71384;BME280;67558;52.166;5.004;2023-05-11T04:06:53;101521.56;;;15.19;68.49
71384;BME280;67558;52.166;5.004;2023-05-11T04:09:18;101507.88;;;15.10;68.55
71384;BME280;67558;52.166;5.004;2023-05-11T04:11:43;101522.63;;;15.23;68.59
71384;BME280;67558;52.166;5.004;2023-05-11T04:14:08;101534.69;;;15.31;68.52
71384;BME280;67558;52.166;5.004;2023-05-11T04:16:34;101532.00;;;15.31;68.60
71384;BME280;67558;52.166;5.004;2023-05-11T04:19:00;101531.19;;;15.30;68.59
71384;BME280;67558;52.166;5.004;2023-05-11T04:21:26;101532.00;;;15.31;68.56
71384;BME280;67558;52.166;5.004;2023-05-11T04:23:51;101545.47;;;15.36;68.93
71384;BME280;67558;52.166;5.004;2023-05-11T04:26:16;101540.59;;;15.38;68.66
71384;BME280;67558;52.166;5.004;2023-05-11T04:28:42;101545.16;;;15.38;68.53
71384;BME280;67558;52.166;5.004;2023-05-11T04:31:07;101541.94;;;15.35;68.84
71384;BME280;67558;52.166;5.004;2023-05-11T04:33:32;101544.88;;;15.39;68.67
71384;BME280;67558;52.166;5.004;2023-05-11T04:35:57;101549.72;;;15.42;68.99
71384;BME280;67558;52.166;5.004;2023-05-11T04:38:23;101558.84;;;15.46;68.85
71384;BME280;67558;52.166;5.004;2023-05-11T04:40:48;101515.88;;;15.21;68.82
71384;BME280;67558;52.166;5.004;2023-05-11T04:43:14;101561.56;;;15.46;68.96
71384;BME280;67558;52.166;5.004;2023-05-11T04:45:40;101564.78;;;15.48;68.92
71384;BME280;67558;52.166;5.004;2023-05-11T04:48:05;101559.16;;;15.45;68.83
71384;BME280;67558;52.166;5.004;2023-05-11T04:50:31;101564.53;;;15.45;69.09
71384;BME280;67558;52.166;5.004;2023-05-11T04:52:57;101567.78;;;15.47;68.76
71384;BME280;67558;52.166;5.004;2023-05-11T04:55:22;101569.31;;;15.53;69.19
71384;BME280;67558;52.166;5.004;2023-05-11T04:57:47;101566.63;;;15.53;69.37
71384;BME280;67558;52.166;5.004;2023-05-11T05:00:13;101567.69;;;15.57;69.07
71384;BME280;67558;52.166;5.004;2023-05-11T05:02:38;101558.84;;;15.51;69.25
71384;BME280;67558;52.166;5.004;2023-05-11T05:05:04;101568.78;;;15.56;69.36
71384;BME280;67558;52.166;5.004;2023-05-11T05:07:30;101576.28;;;15.59;69.41
71384;BME280;67558;52.166;5.004;2023-05-11T05:09:55;101573.84;;;15.63;70.03
71384;BME280;67558;52.166;5.004;2023-05-11T05:12:20;101566.56;;;15.63;69.42
71384;BME280;67558;52.166;5.004;2023-05-11T05:14:45;101586.22;;;15.69;69.38
71384;BME280;67558;52.166;5.004;2023-05-11T05:17:11;101572.22;;;15.67;69.50
71384;BME280;67558;52.166;5.004;2023-05-11T05:19:36;101573.81;;;15.68;69.37
71384;BME280;67558;52.166;5.004;2023-05-11T05:22:01;101584.06;;;15.71;69.48
71384;BME280;67558;52.166;5.004;2023-05-11T05:24:27;101582.13;;;15.76;69.35
71384;BME280;67558;52.166;5.004;2023-05-11T05:26:52;101595.06;;;15.80;69.14
71384;BME280;67558;52.166;5.004;2023-05-11T05:29:18;101587.50;;;15.82;69.27
71384;BME280;67558;52.166;5.004;2023-05-11T05:31:43;101585.66;;;15.77;69.39
71384;BME280;67558;52.166;5.004;2023-05-11T05:34:08;101600.16;;;15.86;69.41
71384;BME280;67558;52.166;5.004;2023-05-11T05:36:34;101598.56;;;15.85;69.25
71384;BME280;67558;52.166;5.004;2023-05-11T05:38:59;101597.19;;;15.83;69.50
71384;BME280;67558;52.166;5.004;2023-05-11T05:41:25;101601.47;;;15.89;69.49
71384;BME280;67558;52.166;5.004;2023-05-11T05:43:51;101597.72;;;15.85;69.58
71384;BME280;67558;52.166;5.004;2023-05-11T05:46:16;101608.78;;;15.88;69.42
71384;BME280;67558;52.166;5.004;2023-05-11T05:48:42;101614.13;;;15.93;69.09
71384;BME280;67558;52.166;5.004;2023-05-11T05:51:07;101611.16;;;15.95;69.38
71384;BME280;67558;52.166;5.004;2023-05-11T05:53:33;101618.66;;;15.98;69.51
71384;BME280;67558;52.166;5.004;2023-05-11T05:55:58;101617.34;;;15.95;69.54
71384;BME280;67558;52.166;5.004;2023-05-11T05:58:24;101603.09;;;15.90;69.50
71384;BME280;67558;52.166;5.004;2023-05-11T06:00:49;101620.81;;;16.01;69.33
71384;BME280;67558;52.166;5.004;2023-05-11T06:03:15;101619.44;;;16.04;69.37
71384;BME280;67558;52.166;5.004;2023-05-11T06:05:40;101619.44;;;16.04;69.63
71384;BME280;67558;52.166;5.004;2023-05-11T06:08:05;101624.78;;;16.09;69.32
71384;BME280;67558;52.166;5.004;2023-05-11T06:10:31;101620.97;;;16.15;69.58
71384;BME280;67558;52.166;5.004;2023-05-11T06:12:56;101594.09;;;16.05;69.21
71384;BME280;67558;52.166;5.004;2023-05-11T06:15:22;101624.09;;;16.27;69.19
71384;BME280;67558;52.166;5.004;2023-05-11T06:17:47;101620.34;;;16.28;68.99
71384;BME280;67558;52.166;5.004;2023-05-11T06:20:12;101621.41;;;16.27;69.21
71384;BME280;67558;52.166;5.004;2023-05-11T06:22:38;101637.78;;;16.36;68.95
71384;BME280;67558;52.166;5.004;2023-05-11T06:25:04;101620.78;;;16.35;69.00
71384;BME280;67558;52.166;5.004;2023-05-11T06:27:29;101625.91;;;16.37;68.66
71384;BME280;67558;52.166;5.004;2023-05-11T06:29:55;101629.88;;;16.45;68.62
71384;BME280;67558;52.166;5.004;2023-05-11T06:32:20;101631.19;;;16.47;68.53
71384;BME280;67558;52.166;5.004;2023-05-11T06:34:46;101627.94;;;16.50;68.79
71384;BME280;67558;52.166;5.004;2023-05-11T06:37:11;101623.69;;;16.44;68.77
71384;BME280;67558;52.166;5.004;2023-05-11T06:39:40;101636.25;;;16.54;68.82
71384;BME280;67558;52.166;5.004;2023-05-11T06:42:06;101634.16;;;16.51;68.76
71384;BME280;67558;52.166;5.004;2023-05-11T06:44:32;101629.84;;;16.50;68.77
71384;BME280;67558;52.166;5.004;2023-05-11T06:46:58;101639.22;;;16.57;68.90
71384;BME280;67558;52.166;5.004;2023-05-11T06:49:25;101638.88;;;16.64;68.61
71384;BME280;67558;52.166;5.004;2023-05-11T06:51:50;101636.69;;;16.66;68.37
71384;BME280;67558;52.166;5.004;2023-05-11T06:54:16;101643.66;;;16.72;68.51
71384;BME280;67558;52.166;5.004;2023-05-11T06:56:41;101645.78;;;16.75;67.97
71384;BME280;67558;52.166;5.004;2023-05-11T06:59:07;101646.00;;;16.79;67.85
71384;BME280;67558;52.166;5.004;2023-05-11T07:01:32;101633.84;;;16.82;67.84
71384;BME280;67558;52.166;5.004;2023-05-11T07:03:57;101631.13;;;16.87;67.77
71384;BME280;67558;52.166;5.004;2023-05-11T07:06:23;101638.56;;;16.95;67.65
71384;BME280;67558;52.166;5.004;2023-05-11T07:08:48;101646.03;;;17.03;67.90
71384;BME280;67558;52.166;5.004;2023-05-11T07:11:13;101641.66;;;17.07;67.33
71384;BME280;67558;52.166;5.004;2023-05-11T07:13:39;101640.81;;;17.12;67.44
71384;BME280;67558;52.166;5.004;2023-05-11T07:16:05;101635.41;;;17.12;67.07
71384;BME280;67558;52.166;5.004;2023-05-11T07:18:31;101646.88;;;17.23;67.27
71384;BME280;67558;52.166;5.004;2023-05-11T07:20:57;101648.16;;;17.30;67.09
71384;BME280;67558;52.166;5.004;2023-05-11T07:23:22;101648.59;;;17.37;66.91
71384;BME280;67558;52.166;5.004;2023-05-11T07:25:47;101643.06;;;17.48;66.67
71384;BME280;67558;52.166;5.004;2023-05-11T07:28:13;101641.28;;;17.57;66.16
71384;BME280;67558;52.166;5.004;2023-05-11T07:30:39;101640.66;;;17.65;66.14
71384;BME280;67558;52.166;5.004;2023-05-11T07:33:04;101637.06;;;17.70;65.78
71384;BME280;67558;52.166;5.004;2023-05-11T07:35:30;101644.53;;;17.78;66.00
71384;BME280;67558;52.166;5.004;2023-05-11T07:37:56;101648.19;;;17.87;65.93
71384;BME280;67558;52.166;5.004;2023-05-11T07:40:21;101636.81;;;17.90;65.44
71384;BME280;67558;52.166;5.004;2023-05-11T07:42:47;101636.66;;;18.00;65.47
71384;BME280;67558;52.166;5.004;2023-05-11T07:45:12;101653.16;;;18.18;64.64
71384;BME280;67558;52.166;5.004;2023-05-11T07:47:37;101646.69;;;18.33;65.01
71384;BME280;67558;52.166;5.004;2023-05-11T07:50:03;101652.84;;;18.52;64.71
71384;BME280;67558;52.166;5.004;2023-05-11T07:52:28;101633.97;;;18.61;64.14
71384;BME280;67558;52.166;5.004;2023-05-11T07:54:54;101648.97;;;18.86;63.77
71384;BME280;67558;52.166;5.004;2023-05-11T07:57:20;101638.44;;;18.98;63.44
71384;BME280;67558;52.166;5.004;2023-05-11T07:59:46;101650.66;;;19.10;62.98
71384;BME280;67558;52.166;5.004;2023-05-11T08:02:11;101644.03;;;19.16;62.74
71384;BME280;67558;52.166;5.004;2023-05-11T08:04:36;101649.56;;;19.24;62.08
71384;BME280;67558;52.166;5.004;2023-05-11T08:07:02;101647.06;;;19.28;61.79
71384;BME280;67558;52.166;5.004;2023-05-11T08:09:28;101636.00;;;19.24;61.45
71384;BME280;67558;52.166;5.004;2023-05-11T08:11:54;101641.63;;;19.28;61.44
71384;BME280;67558;52.166;5.004;2023-05-11T08:14:21;101647.34;;;19.27;61.18
71384;BME280;67558;52.166;5.004;2023-05-11T08:16:47;101650.34;;;19.25;61.12
71384;BME280;67558;52.166;5.004;2023-05-11T08:19:13;101642.84;;;19.22;60.78
71384;BME280;67558;52.166;5.004;2023-05-11T08:21:39;101649.69;;;19.19;60.67
71384;BME280;67558;52.166;5.004;2023-05-11T08:24:04;101637.53;;;19.17;60.75
71384;BME280;67558;52.166;5.004;2023-05-11T08:26:30;101645.84;;;19.20;60.53
71384;BME280;67558;52.166;5.004;2023-05-11T08:28:55;101642.63;;;19.18;60.10
71384;BME280;67558;52.166;5.004;2023-05-11T08:31:20;101645.16;;;19.15;60.37
71384;BME280;67558;52.166;5.004;2023-05-11T08:33:46;101643.88;;;19.12;60.08
71384;BME280;67558;52.166;5.004;2023-05-11T08:36:11;101639.25;;;19.13;59.97
71384;BME280;67558;52.166;5.004;2023-05-11T08:38:40;101648.47;;;19.26;60.25
71384;BME280;67558;52.166;5.004;2023-05-11T08:41:05;101653.66;;;19.36;59.85
71384;BME280;67558;52.166;5.004;2023-05-11T08:43:33;101646.59;;;19.49;59.71
71384;BME280;67558;52.166;5.004;2023-05-11T08:46:03;101651.72;;;19.64;59.52
71384;BME280;67558;52.166;5.004;2023-05-11T08:48:31;101648.47;;;19.76;59.16
71384;BME280;67558;52.166;5.004;2023-05-11T08:50:58;101649.81;;;19.87;58.63
71384;BME280;67558;52.166;5.004;2023-05-11T08:53:23;101647.00;;;19.92;58.60
71384;BME280;67558;52.166;5.004;2023-05-11T08:55:49;101634.53;;;19.91;58.27
71384;BME280;67558;52.166;5.004;2023-05-11T08:58:16;101641.31;;;20.02;57.77
71384;BME280;67558;52.166;5.004;2023-05-11T09:00:49;101642.13;;;20.03;57.74
71384;BME280;67558;52.166;5.004;2023-05-11T09:03:18;101643.63;;;20.09;57.41
71384;BME280;67558;52.166;5.004;2023-05-11T09:05:45;101640.56;;;20.11;57.31
71384;BME280;67558;52.166;5.004;2023-05-11T09:08:12;101621.84;;;20.00;57.35
71384;BME280;67558;52.166;5.004;2023-05-11T09:10:38;101635.63;;;20.13;57.04
71384;BME280;67558;52.166;5.004;2023-05-11T09:13:03;101641.25;;;20.16;56.83
71384;BME280;67558;52.166;5.004;2023-05-11T09:15:29;101642.06;;;20.17;56.45
71384;BME280;67558;52.166;5.004;2023-05-11T09:17:55;101647.00;;;20.15;56.35
71384;BME280;67558;52.166;5.004;2023-05-11T09:20:28;101643.47;;;20.14;55.50
71384;BME280;67558;52.166;5.004;2023-05-11T09:22:54;101654.22;;;20.19;56.22
71384;BME280;67558;52.166;5.004;2023-05-11T09:25:20;101637.13;;;20.19;56.29
71384;BME280;67558;52.166;5.004;2023-05-11T09:27:47;101645.13;;;20.24;55.82
71384;BME280;67558;52.166;5.004;2023-05-11T09:30:22;101638.91;;;20.23;55.01
71384;BME280;67558;52.166;5.004;2023-05-11T09:32:52;101639.88;;;20.28;55.31
71384;BME280;67558;52.166;5.004;2023-05-11T09:35:24;101645.66;;;20.35;55.09
71384;BME280;67558;52.166;5.004;2023-05-11T09:38:07;101642.16;;;20.34;53.47
71384;BME280;67558;52.166;5.004;2023-05-11T09:40:54;101639.63;;;20.38;52.02
71384;BME280;67558;52.166;5.004;2023-05-11T09:43:25;101639.97;;;20.45;54.40
71384;BME280;67558;52.166;5.004;2023-05-11T09:45:55;101637.44;;;20.49;54.29
71384;BME280;67558;52.166;5.004;2023-05-11T09:48:29;101641.75;;;20.50;53.55
71384;BME280;67558;52.166;5.004;2023-05-11T09:51:06;101637.94;;;20.51;53.65
71384;BME280;67558;52.166;5.004;2023-05-11T09:53:40;101638.91;;;20.55;53.28
71384;BME280;67558;52.166;5.004;2023-05-11T09:56:07;101641.63;;;20.55;52.84
71384;BME280;67558;52.166;5.004;2023-05-11T10:01:16;101641.59;;;20.46;52.81
71384;BME280;67558;52.166;5.004;2023-05-11T10:03:50;101636.75;;;20.43;53.19
71384;BME280;67558;52.166;5.004;2023-05-11T10:06:18;101638.53;;;20.48;53.19
71384;BME280;67558;52.166;5.004;2023-05-11T10:08:43;101647.06;;;20.55;53.45
71384;BME280;67558;52.166;5.004;2023-05-11T10:11:08;101641.31;;;20.56;53.04
71384;BME280;67558;52.166;5.004;2023-05-11T10:13:34;101641.41;;;20.65;53.44
71384;BME280;67558;52.166;5.004;2023-05-11T10:16:02;101627.34;;;20.72;53.41
71384;BME280;67558;52.166;5.004;2023-05-11T10:18:31;101639.66;;;20.78;53.63
71384;BME280;67558;52.166;5.004;2023-05-11T10:20:57;101637.94;;;20.82;53.55
71384;BME280;67558;52.166;5.004;2023-05-11T10:23:24;101635.09;;;20.87;53.41
71384;BME280;67558;52.166;5.004;2023-05-11T10:25:51;101630.28;;;20.93;53.23
71384;BME280;67558;52.166;5.004;2023-05-11T10:28:18;101585.94;;;20.75;52.63
71384;BME280;67558;52.166;5.004;2023-05-11T10:30:45;101634.47;;;20.99;52.77
71384;BME280;67558;52.166;5.004;2023-05-11T10:33:12;101631.13;;;21.02;52.87
71384;BME280;67558;52.166;5.004;2023-05-11T10:35:37;101636.88;;;21.00;52.79
71384;BME280;67558;52.166;5.004;2023-05-11T10:38:03;101636.69;;;20.97;52.82
71384;BME280;67558;52.166;5.004;2023-05-11T10:40:35;101633.00;;;20.93;53.08
71384;BME280;67558;52.166;5.004;2023-05-11T10:51:37;101640.38;;;20.30;54.34
71384;BME280;67558;52.166;5.004;2023-05-11T10:54:25;101647.72;;;20.07;54.91
71384;BME280;67558;52.166;5.004;2023-05-11T10:57:10;101647.31;;;19.91;55.68
71384;BME280;67558;52.166;5.004;2023-05-11T11:02:33;101639.94;;;19.55;56.23
71384;BME280;67558;52.166;5.004;2023-05-11T11:04:59;101652.22;;;19.52;56.21
71384;BME280;67558;52.166;5.004;2023-05-11T11:07:54;101650.84;;;19.41;56.71
71384;BME280;67558;52.166;5.004;2023-05-11T11:10:32;101650.56;;;19.29;57.09
71384;BME280;67558;52.166;5.004;2023-05-11T11:13:02;101652.28;;;19.24;57.31
71384;BME280;67558;52.166;5.004;2023-05-11T11:18:23;101660.63;;;19.00;57.76
71384;BME280;67558;52.166;5.004;2023-05-11T11:20:50;101657.94;;;18.87;58.27
71384;BME280;67558;52.166;5.004;2023-05-11T11:26:04;101654.03;;;18.60;59.97
71384;BME280;67558;52.166;5.004;2023-05-11T11:29:08;101654.03;;;18.46;62.36
71384;BME280;67558;52.166;5.004;2023-05-11T11:31:34;101652.88;;;18.33;61.15
71384;BME280;67558;52.166;5.004;2023-05-11T11:39:47;101659.94;;;18.15;61.98
71384;BME280;67558;52.166;5.004;2023-05-11T11:42:16;101658.50;;;18.04;62.06
71384;BME280;67558;52.166;5.004;2023-05-11T11:44:43;101660.56;;;17.93;62.23
71384;BME280;67558;52.166;5.004;2023-05-11T11:47:16;101656.41;;;17.82;62.63
71384;BME280;67558;52.166;5.004;2023-05-11T11:49:44;101658.72;;;17.70;63.13
71384;BME280;67558;52.166;5.004;2023-05-11T11:52:32;101667.78;;;17.60;64.16
71384;BME280;67558;52.166;5.004;2023-05-11T11:54:59;101670.84;;;17.53;63.72
71384;BME280;67558;52.166;5.004;2023-05-11T11:59:58;101660.28;;;17.33;63.99
71384;BME280;67558;52.166;5.004;2023-05-11T12:02:25;101673.28;;;17.31;63.88
71384;BME280;67558;52.166;5.004;2023-05-11T12:04:55;101679.81;;;17.30;64.54
71384;BME280;67558;52.166;5.004;2023-05-11T12:07:21;101678.13;;;17.34;65.40
71384;BME280;67558;52.166;5.004;2023-05-11T12:09:48;101683.47;;;17.39;64.41
71384;BME280;67558;52.166;5.004;2023-05-11T12:12:16;101687.78;;;17.40;64.25
71384;BME280;67558;52.166;5.004;2023-05-11T12:14:45;101681.81;;;17.43;64.24
71384;BME280;67558;52.166;5.004;2023-05-11T12:17:14;101689.28;;;17.51;64.88
71384;BME280;67558;52.166;5.004;2023-05-11T12:19:44;101672.53;;;17.49;64.93
71384;BME280;67558;52.166;5.004;2023-05-11T12:22:11;101679.13;;;17.62;64.75
71384;BME280;67558;52.166;5.004;2023-05-11T12:24:39;101680.72;;;17.63;64.87
71384;BME280;67558;52.166;5.004;2023-05-11T12:27:04;101676.84;;;17.69;65.52
71384;BME280;67558;52.166;5.004;2023-05-11T12:29:30;101681.38;;;17.74;65.32
71384;BME280;67558;52.166;5.004;2023-05-11T12:31:58;101672.09;;;17.80;65.14
71384;BME280;67558;52.166;5.004;2023-05-11T12:34:23;101670.44;;;17.84;65.22
71384;BME280;67558;52.166;5.004;2023-05-11T12:36:53;101665.25;;;17.88;65.14
71384;BME280;67558;52.166;5.004;2023-05-11T12:39:21;101662.75;;;17.91;64.73
71384;BME280;67558;52.166;5.004;2023-05-11T12:41:47;101661.66;;;17.92;64.80
71384;BME280;67558;52.166;5.004;2023-05-11T12:44:15;101665.47;;;17.91;64.66
71384;BME280;67558;52.166;5.004;2023-05-11T12:46:41;101656.31;;;17.87;64.47
71384;BME280;67558;52.166;5.004;2023-05-11T12:49:08;101665.53;;;17.86;64.20
71384;BME280;67558;52.166;5.004;2023-05-11T12:51:46;101666.06;;;17.88;64.11
71384;BME280;67558;52.166;5.004;2023-05-11T12:54:35;101669.84;;;17.87;64.49
71384;BME280;67558;52.166;5.004;2023-05-11T12:57:17;101667.75;;;17.84;63.87
71384;BME280;67558;52.166;5.004;2023-05-11T12:59:45;101678.47;;;17.89;64.27
71384;BME280;67558;52.166;5.004;2023-05-11T13:02:20;101679.38;;;17.85;64.23
71384;BME280;67558;52.166;5.004;2023-05-11T13:04:46;101682.94;;;17.99;64.12
71384;BME280;67558;52.166;5.004;2023-05-11T13:07:13;101681.84;;;18.00;63.67
71384;BME280;67558;52.166;5.004;2023-05-11T13:09:39;101681.03;;;17.99;64.12
71384;BME280;67558;52.166;5.004;2023-05-11T13:12:18;101688.59;;;18.03;64.43
71384;BME280;67558;52.166;5.004;2023-05-11T13:14:45;101685.44;;;17.95;64.14
71384;BME280;67558;52.166;5.004;2023-05-11T13:17:11;101684.34;;;17.96;64.58
71384;BME280;67558;52.166;5.004;2023-05-11T13:19:36;101683.31;;;17.92;64.41
71384;BME280;67558;52.166;5.004;2023-05-11T13:22:04;101683.88;;;17.89;64.55
71384;BME280;67558;52.166;5.004;2023-05-11T13:24:29;101688.28;;;17.85;64.30
71384;BME280;67558;52.166;5.004;2023-05-11T13:26:57;101684.78;;;17.85;64.20
71384;BME280;67558;52.166;5.004;2023-05-11T13:29:22;101680.75;;;17.82;64.38
71384;BME280;67558;52.166;5.004;2023-05-11T13:31:49;101681.78;;;17.86;64.29
71384;BME280;67558;52.166;5.004;2023-05-11T13:34:15;101688.59;;;17.84;64.76
71384;BME280;67558;52.166;5.004;2023-05-11T13:36:41;101683.00;;;17.94;65.24